sensor_id;sensor_type;location;lat;lon;timestamp;temperature;humidity
70151;DHT22;57517;43.562;19.540;2023-02-28T00:02:18;128.90;2252.80
70151;DHT22;57517;43.562;19.540;2023-02-28T00:04:47;128.90;2252.80
70151;DHT22;57517;43.562;19.540;2023-02-28T00:07:19;153.60;2252.80
70151;DHT22;57517;43.562;19.540;2023-02-28T00:09:44;128.90;2252.80
70151;DHT22;57517;43.562;19.540;2023-02-28T00:12:10;153.60;2252.80
70151;DHT22;57517;43.562;19.540;2023-02-28T00:14:36;128.90;2252.80
70151;DHT22;57517;43.562;19.540;2023-02-28T00:17:02;128.90;2252.80
70151;DHT22;57517;43.562;19.540;2023-02-28T00:19:28;153.60;2252.80
70151;DHT22;57517;43.562;19.540;2023-02-28T00:21:53;128.90;2252.80
70151;DHT22;57517;43.562;19.540;2023-02-28T00:24:19;128.80;2252.80
70151;DHT22;57517;43.562;19.540;2023-02-28T00:26:45;128.90;2252.80
70151;DHT22;57517;43.562;19.540;2023-02-28T00:29:10;128.70;2252.80
70151;DHT22;57517;43.562;19.540;2023-02-28T00:31:36;128.80;2252.80
70151;DHT22;57517;43.562;19.540;2023-02-28T00:34:02;128.80;2252.80
70151;DHT22;57517;43.562;19.540;2023-02-28T00:36:27;128.80;2252.80
70151;DHT22;57517;43.562;19.540;2023-02-28T00:38:53;128.60;2252.80
70151;DHT22;57517;43.562;19.540;2023-02-28T00:41:19;128.70;2252.80
70151;DHT22;57517;43.562;19.540;2023-02-28T00:43:45;128.80;2252.80
70151;DHT22;57517;43.562;19.540;2023-02-28T00:46:10;128.80;2252.80
70151;DHT22;57517;43.562;19.540;2023-02-28T00:48:36;128.70;2252.80
70151;DHT22;57517;43.562;19.540;2023-02-28T00:51:02;128.70;2252.80
70151;DHT22;57517;43.562;19.540;2023-02-28T00:53:28;128.70;2252.80
70151;DHT22;57517;43.562;19.540;2023-02-28T00:55:54;128.60;2252.80
70151;DHT22;57517;43.562;19.540;2023-02-28T00:58:20;128.50;2252.80
70151;DHT22;57517;43.562;19.540;2023-02-28T01:00:46;128.60;2252.80
70151;DHT22;57517;43.562;19.540;2023-02-28T01:03:16;128.70;2252.80
70151;DHT22;57517;43.562;19.540;2023-02-28T01:05:42;128.70;2252.80
70151;DHT22;57517;43.562;19.540;2023-02-28T01:08:07;128.60;2252.80
70151;DHT22;57517;43.562;19.540;2023-02-28T01:10:33;128.60;2252.80
70151;DHT22;57517;43.562;19.540;2023-02-28T01:13:02;128.40;2252.80
70151;DHT22;57517;43.562;19.540;2023-02-28T01:15:28;128.50;2252.80
70151;DHT22;57517;43.562;19.540;2023-02-28T01:17:54;128.60;2252.80
70151;DHT22;57517;43.562;19.540;2023-02-28T01:20:19;128.60;2252.80
70151;DHT22;57517;43.562;19.540;2023-02-28T01:22:45;128.60;2252.80
70151;DHT22;57517;43.562;19.540;2023-02-28T01:25:12;128.30;2252.80
70151;DHT22;57517;43.562;19.540;2023-02-28T01:27:38;128.40;2252.80
70151;DHT22;57517;43.562;19.540;2023-02-28T01:30:06;128.30;2252.80
70151;DHT22;57517;43.562;19.540;2023-02-28T01:32:32;128.50;2252.80
70151;DHT22;57517;43.562;19.540;2023-02-28T01:34:57;128.60;2252.80
70151;DHT22;57517;43.562;19.540;2023-02-28T01:37:23;128.60;2252.80
70151;DHT22;57517;43.562;19.540;2023-02-28T01:39:49;128.50;2252.80
70151;DHT22;57517;43.562;19.540;2023-02-28T01:42:15;128.60;2252.80
70151;DHT22;57517;43.562;19.540;2023-02-28T01:47:40;128.70;2252.80
70151;DHT22;57517;43.562;19.540;2023-02-28T01:50:18;128.60;2252.80
70151;DHT22;57517;43.562;19.540;2023-02-28T01:52:45;128.60;2252.80
70151;DHT22;57517;43.562;19.540;2023-02-28T01:55:13;128.40;2252.80
70151;DHT22;57517;43.562;19.540;2023-02-28T01:57:46;128.40;2252.80
70151;DHT22;57517;43.562;19.540;2023-02-28T02:00:16;128.50;2252.80
70151;DHT22;57517;43.562;19.540;2023-02-28T02:02:46;128.40;2252.80
70151;DHT22;57517;43.562;19.540;2023-02-28T02:05:16;128.50;2252.80
70151;DHT22;57517;43.562;19.540;2023-02-28T02:07:45;128.50;2252.80
70151;DHT22;57517;43.562;19.540;2023-02-28T02:10:17;128.30;2252.80
70151;DHT22;57517;43.562;19.540;2023-02-28T02:15:54;128.50;2252.80
70151;DHT22;57517;43.562;19.540;2023-02-28T02:19:23;128.30;2252.80
70151;DHT22;57517;43.562;19.540;2023-02-28T02:35:31;128.10;2252.80
70151;DHT22;57517;43.562;19.540;2023-02-28T02:40:56;128.00;2252.80
70151;DHT22;57517;43.562;19.540;2023-02-28T02:43:31;128.10;2252.80
70151;DHT22;57517;43.562;19.540;2023-02-28T02:46:21;128.10;2252.80
70151;DHT22;57517;43.562;19.540;2023-02-28T02:48:48;128.00;2252.80
70151;DHT22;57517;43.562;19.540;2023-02-28T02:51:17;128.10;2252.80
70151;DHT22;57517;43.562;19.540;2023-02-28T02:53:52;128.20;2252.80
70151;DHT22;57517;43.562;19.540;2023-02-28T02:56:23;128.30;2252.80
70151;DHT22;57517;43.562;19.540;2023-02-28T02:58:51;128.20;2252.80
70151;DHT22;57517;43.562;19.540;2023-02-28T03:01:21;128.40;2252.80
70151;DHT22;57517;43.562;19.540;2023-02-28T03:03:55;128.40;2252.80
70151;DHT22;57517;43.562;19.540;2023-02-28T03:06:21;128.40;2252.80
70151;DHT22;57517;43.562;19.540;2023-02-28T03:08:47;128.30;2252.80
70151;DHT22;57517;43.562;19.540;2023-02-28T03:11:14;128.30;2252.80
70151;DHT22;57517;43.562;19.540;2023-02-28T03:16:23;128.20;2252.80
70151;DHT22;57517;43.562;19.540;2023-02-28T03:27:04;128.00;2252.80
70151;DHT22;57517;43.562;19.540;2023-02-28T03:29:46;103.30;2227.20
70151;DHT22;57517;43.562;19.540;2023-02-28T03:32:28;103.30;2227.20
70151;DHT22;57517;43.562;19.540;2023-02-28T03:35:20;128.00;2252.80
70151;DHT22;57517;43.562;19.540;2023-02-28T03:40:45;128.00;2252.80
70151;DHT22;57517;43.562;19.540;2023-02-28T03:43:18;128.20;2252.80
70151;DHT22;57517;43.562;19.540;2023-02-28T03:45:45;128.30;2252.80
70151;DHT22;57517;43.562;19.540;2023-02-28T03:48:31;128.40;2252.80
70151;DHT22;57517;43.562;19.540;2023-02-28T03:51:02;128.20;2252.80
70151;DHT22;57517;43.562;19.540;2023-02-28T03:53:36;128.10;2252.80
70151;DHT22;57517;43.562;19.540;2023-02-28T03:56:18;103.30;2227.20
70151;DHT22;57517;43.562;19.540;2023-02-28T04:01:37;103.30;2227.20
70151;DHT22;57517;43.562;19.540;2023-02-28T04:04:04;103.30;2227.20
70151;DHT22;57517;43.562;19.540;2023-02-28T04:06:32;128.00;2252.80
70151;DHT22;57517;43.562;19.540;2023-02-28T04:08:58;128.10;2252.80
70151;DHT22;57517;43.562;19.540;2023-02-28T04:11:36;128.10;2252.80
70151;DHT22;57517;43.562;19.540;2023-02-28T04:14:06;128.00;2252.80
70151;DHT22;57517;43.562;19.540;2023-02-28T04:16:34;128.10;2252.80
70151;DHT22;57517;43.562;19.540;2023-02-28T04:19:01;128.20;2252.80
70151;DHT22;57517;43.562;19.540;2023-02-28T04:21:41;128.20;2252.80
70151;DHT22;57517;43.562;19.540;2023-02-28T04:24:13;128.10;2252.80
70151;DHT22;57517;43.562;19.540;2023-02-28T04:26:42;128.20;2252.80
70151;DHT22;57517;43.562;19.540;2023-02-28T04:29:10;128.10;2252.80
70151;DHT22;57517;43.562;19.540;2023-02-28T04:31:36;128.00;2252.80
70151;DHT22;57517;43.562;19.540;2023-02-28T04:34:02;103.30;2227.20
70151;DHT22;57517;43.562;19.540;2023-02-28T04:36:28;128.00;2252.80
70151;DHT22;57517;43.562;19.540;2023-02-28T04:38:54;128.20;2252.80
70151;DHT22;57517;43.562;19.540;2023-02-28T04:41:20;128.10;2252.80
70151;DHT22;57517;43.562;19.540;2023-02-28T04:43:46;103.20;2227.20
70151;DHT22;57517;43.562;19.540;2023-02-28T04:46:12;103.20;2227.20
70151;DHT22;57517;43.562;19.540;2023-02-28T04:48:39;103.30;2227.20
70151;DHT22;57517;43.562;19.540;2023-02-28T04:51:08;128.10;2252.80
70151;DHT22;57517;43.562;19.540;2023-02-28T04:53:36;128.20;2252.80
70151;DHT22;57517;43.562;19.540;2023-02-28T04:56:03;128.30;2252.80
70151;DHT22;57517;43.562;19.540;2023-02-28T04:58:29;128.10;2252.80
70151;DHT22;57517;43.562;19.540;2023-02-28T05:01:02;128.20;2252.80
70151;DHT22;57517;43.562;19.540;2023-02-28T05:03:28;128.30;2252.80
70151;DHT22;57517;43.562;19.540;2023-02-28T05:05:54;128.20;2252.80
70151;DHT22;57517;43.562;19.540;2023-02-28T05:08:19;128.30;2252.80
70151;DHT22;57517;43.562;19.540;2023-02-28T05:10:45;128.40;2252.80
70151;DHT22;57517;43.562;19.540;2023-02-28T05:13:14;128.40;2252.80
70151;DHT22;57517;43.562;19.540;2023-02-28T05:15:39;128.30;2252.80
70151;DHT22;57517;43.562;19.540;2023-02-28T05:18:05;128.40;2252.80
70151;DHT22;57517;43.562;19.540;2023-02-28T05:20:31;128.40;2252.80
70151;DHT22;57517;43.562;19.540;2023-02-28T05:22:58;128.40;2252.80
70151;DHT22;57517;43.562;19.540;2023-02-28T05:25:25;128.10;2252.80
70151;DHT22;57517;43.562;19.540;2023-02-28T05:27:50;128.20;2252.80
70151;DHT22;57517;43.562;19.540;2023-02-28T05:30:16;128.30;2252.80
70151;DHT22;57517;43.562;19.540;2023-02-28T05:32:42;128.40;2252.80
70151;DHT22;57517;43.562;19.540;2023-02-28T05:35:08;128.40;2252.80
70151;DHT22;57517;43.562;19.540;2023-02-28T05:37:34;128.50;2252.80
70151;DHT22;57517;43.562;19.540;2023-02-28T05:40:00;128.60;2252.80
70151;DHT22;57517;43.562;19.540;2023-02-28T05:42:26;128.60;2252.80
70151;DHT22;57517;43.562;19.540;2023-02-28T05:44:51;128.60;2252.80
70151;DHT22;57517;43.562;19.540;2023-02-28T05:47:17;128.60;2252.80
70151;DHT22;57517;43.562;19.540;2023-02-28T05:49:43;128.70;2252.80
70151;DHT22;57517;43.562;19.540;2023-02-28T05:52:08;128.70;2252.80
70151;DHT22;57517;43.562;19.540;2023-02-28T05:54:34;128.70;2252.80
70151;DHT22;57517;43.562;19.540;2023-02-28T05:57:00;128.70;2252.80
70151;DHT22;57517;43.562;19.540;2023-02-28T05:59:26;128.70;2252.80
70151;DHT22;57517;43.562;19.540;2023-02-28T06:01:51;128.70;2252.80
70151;DHT22;57517;43.562;19.540;2023-02-28T06:04:20;128.70;2252.80
70151;DHT22;57517;43.562;19.540;2023-02-28T06:06:46;128.70;2252.80
70151;DHT22;57517;43.562;19.540;2023-02-28T06:09:12;128.70;2252.80
70151;DHT22;57517;43.562;19.540;2023-02-28T06:11:38;128.70;2252.80
70151;DHT22;57517;43.562;19.540;2023-02-28T06:14:04;128.70;2252.80
70151;DHT22;57517;43.562;19.540;2023-02-28T06:16:32;128.60;2252.80
70151;DHT22;57517;43.562;19.540;2023-02-28T06:18:59;128.60;2252.80
70151;DHT22;57517;43.562;19.540;2023-02-28T06:21:25;128.60;2252.80
70151;DHT22;57517;43.562;19.540;2023-02-28T06:23:52;128.40;2252.80
70151;DHT22;57517;43.562;19.540;2023-02-28T06:26:19;128.40;2252.80
70151;DHT22;57517;43.562;19.540;2023-02-28T06:28:45;128.50;2252.80
70151;DHT22;57517;43.562;19.540;2023-02-28T06:31:13;128.60;2252.80
70151;DHT22;57517;43.562;19.540;2023-02-28T06:33:40;128.70;2252.80
70151;DHT22;57517;43.562;19.540;2023-02-28T06:36:06;128.60;2252.80
70151;DHT22;57517;43.562;19.540;2023-02-28T06:38:33;128.60;2252.80
70151;DHT22;57517;43.562;19.540;2023-02-28T06:41:00;128.70;2252.80
70151;DHT22;57517;43.562;19.540;2023-02-28T06:43:28;128.80;2252.80
70151;DHT22;57517;43.562;19.540;2023-02-28T06:45:55;128.80;2252.80
70151;DHT22;57517;43.562;19.540;2023-02-28T06:48:21;128.70;2252.80
70151;DHT22;57517;43.562;19.540;2023-02-28T06:50:47;128.80;2252.80
70151;DHT22;57517;43.562;19.540;2023-02-28T06:53:13;128.90;2252.80
70151;DHT22;57517;43.562;19.540;2023-02-28T06:55:40;128.90;2252.80
70151;DHT22;57517;43.562;19.540;2023-02-28T06:58:06;128.90;2252.80
70151;DHT22;57517;43.562;19.540;2023-02-28T07:00:41;128.90;2252.80
70151;DHT22;57517;43.562;19.540;2023-02-28T07:03:07;128.90;2252.80
70151;DHT22;57517;43.562;19.540;2023-02-28T07:05:35;128.90;2252.80
70151;DHT22;57517;43.562;19.540;2023-02-28T07:08:02;153.60;2252.80
70151;DHT22;57517;43.562;19.540;2023-02-28T07:10:29;153.60;2252.80
70151;DHT22;57517;43.562;19.540;2023-02-28T07:12:54;128.80;2252.80
70151;DHT22;57517;43.562;19.540;2023-02-28T07:15:20;128.70;2252.80
70151;DHT22;57517;43.562;19.540;2023-02-28T07:17:46;128.80;2252.80
70151;DHT22;57517;43.562;19.540;2023-02-28T07:20:12;128.90;2252.80
70151;DHT22;57517;43.562;19.540;2023-02-28T07:22:38;128.50;2252.80
70151;DHT22;57517;43.562;19.540;2023-02-28T07:25:05;128.80;2252.80
70151;DHT22;57517;43.562;19.540;2023-02-28T07:27:31;128.90;2252.80
70151;DHT22;57517;43.562;19.540;2023-02-28T07:29:56;128.60;2252.80
70151;DHT22;57517;43.562;19.540;2023-02-28T07:32:22;128.80;2252.80
70151;DHT22;57517;43.562;19.540;2023-02-28T07:34:48;128.70;2252.80
70151;DHT22;57517;43.562;19.540;2023-02-28T07:37:14;153.60;2252.80
70151;DHT22;57517;43.562;19.540;2023-02-28T07:39:40;154.00;2252.80
70151;DHT22;57517;43.562;19.540;2023-02-28T07:42:09;153.90;2252.80
70151;DHT22;57517;43.562;19.540;2023-02-28T07:44:38;153.70;2252.80
70151;DHT22;57517;43.562;19.540;2023-02-28T07:47:07;128.90;2252.80
70151;DHT22;57517;43.562;19.540;2023-02-28T07:49:34;153.70;2252.80
70151;DHT22;57517;43.562;19.540;2023-02-28T07:52:00;153.90;2252.80
70151;DHT22;57517;43.562;19.540;2023-02-28T07:54:25;153.90;2252.80
70151;DHT22;57517;43.562;19.540;2023-02-28T07:56:51;154.00;2252.80
70151;DHT22;57517;43.562;19.540;2023-02-28T07:59:17;153.90;2252.80
70151;DHT22;57517;43.562;19.540;2023-02-28T08:01:42;154.20;2252.80
70151;DHT22;57517;43.562;19.540;2023-02-28T08:04:10;154.20;2252.80
70151;DHT22;57517;43.562;19.540;2023-02-28T08:06:35;154.30;2252.80
70151;DHT22;57517;43.562;19.540;2023-02-28T08:09:01;154.30;2252.80
70151;DHT22;57517;43.562;19.540;2023-02-28T08:11:27;154.30;2252.80
70151;DHT22;57517;43.562;19.540;2023-02-28T08:13:54;154.30;2252.80
70151;DHT22;57517;43.562;19.540;2023-02-28T08:16:20;154.20;2252.80
70151;DHT22;57517;43.562;19.540;2023-02-28T08:18:49;154.20;2252.80
70151;DHT22;57517;43.562;19.540;2023-02-28T08:21:15;154.40;2252.80
70151;DHT22;57517;43.562;19.540;2023-02-28T08:23:41;154.50;2252.80
70151;DHT22;57517;43.562;19.540;2023-02-28T08:26:06;154.30;2252.80
70151;DHT22;57517;43.562;19.540;2023-02-28T08:28:32;154.40;2252.80
70151;DHT22;57517;43.562;19.540;2023-02-28T08:30:58;154.20;2252.80
70151;DHT22;57517;43.562;19.540;2023-02-28T08:33:25;154.20;2252.80
70151;DHT22;57517;43.562;19.540;2023-02-28T08:35:55;154.30;2252.80
70151;DHT22;57517;43.562;19.540;2023-02-28T08:38:21;154.20;2252.80
70151;DHT22;57517;43.562;19.540;2023-02-28T08:40:47;154.30;2252.80
70151;DHT22;57517;43.562;19.540;2023-02-28T08:43:13;154.20;2252.80
70151;DHT22;57517;43.562;19.540;2023-02-28T08:45:39;179.20;2252.80
70151;DHT22;57517;43.562;19.540;2023-02-28T08:48:05;179.20;2252.80
70151;DHT22;57517;43.562;19.540;2023-02-28T08:50:30;179.30;2252.80
70151;DHT22;57517;43.562;19.540;2023-02-28T08:52:56;179.30;2252.80
70151;DHT22;57517;43.562;19.540;2023-02-28T08:55:22;179.20;2252.80
70151;DHT22;57517;43.562;19.540;2023-02-28T08:57:47;179.40;2252.80
70151;DHT22;57517;43.562;19.540;2023-02-28T09:00:13;179.50;2227.20
70151;DHT22;57517;43.562;19.540;2023-02-28T09:02:40;179.60;2252.80
70151;DHT22;57517;43.562;19.540;2023-02-28T09:05:08;179.50;2252.80
70151;DHT22;57517;43.562;19.540;2023-02-28T09:07:34;179.60;2252.80
70151;DHT22;57517;43.562;19.540;2023-02-28T09:09:59;179.50;2252.80
70151;DHT22;57517;43.562;19.540;2023-02-28T09:12:26;179.60;2252.80
70151;DHT22;57517;43.562;19.540;2023-02-28T09:14:53;179.90;2201.60
70151;DHT22;57517;43.562;19.540;2023-02-28T09:17:19;179.40;2252.80
70151;DHT22;57517;43.562;19.540;2023-02-28T09:19:48;179.60;2252.80
70151;DHT22;57517;43.562;19.540;2023-02-28T09:22:13;179.70;2252.80
70151;DHT22;57517;43.562;19.540;2023-02-28T09:24:39;179.90;2176.00
70151;DHT22;57517;43.562;19.540;2023-02-28T09:27:05;179.80;2252.80
70151;DHT22;57517;43.562;19.540;2023-02-28T09:29:32;179.90;2252.80
70151;DHT22;57517;43.562;19.540;2023-02-28T09:31:59;180.10;2252.80
70151;DHT22;57517;43.562;19.540;2023-02-28T09:34:26;180.00;2201.60
70151;DHT22;57517;43.562;19.540;2023-02-28T09:36:52;204.80;2176.00
70151;DHT22;57517;43.562;19.540;2023-02-28T09:39:21;180.10;2150.40
70151;DHT22;57517;43.562;19.540;2023-02-28T09:41:50;204.80;2124.80
70151;DHT22;57517;43.562;19.540;2023-02-28T09:44:36;204.80;2124.80
70151;DHT22;57517;43.562;19.540;2023-02-28T09:49:46;205.00;2073.60
70151;DHT22;57517;43.562;19.540;2023-02-28T09:52:21;205.00;2048.00
70151;DHT22;57517;43.562;19.540;2023-02-28T09:54:49;205.10;2073.60
70151;DHT22;57517;43.562;19.540;2023-02-28T09:57:37;205.30;2048.00
70151;DHT22;57517;43.562;19.540;2023-02-28T10:05:47;205.30;2073.60
70151;DHT22;57517;43.562;19.540;2023-02-28T10:08:22;205.00;2048.00
70151;DHT22;57517;43.562;19.540;2023-02-28T10:11:15;205.30;2022.40
70151;DHT22;57517;43.562;19.540;2023-02-28T10:16:22;205.20;2022.40
70151;DHT22;57517;43.562;19.540;2023-02-28T10:18:57;205.20;2073.60
70151;DHT22;57517;43.562;19.540;2023-02-28T10:21:31;205.40;2022.40
70151;DHT22;57517;43.562;19.540;2023-02-28T10:24:11;205.30;1971.20
70151;DHT22;57517;43.562;19.540;2023-02-28T10:26:43;205.30;1996.80
70151;DHT22;57517;43.562;19.540;2023-02-28T10:29:10;205.10;1996.80
70151;DHT22;57517;43.562;19.540;2023-02-28T10:31:36;205.40;2022.40
70151;DHT22;57517;43.562;19.540;2023-02-28T10:34:03;205.40;2073.60
70151;DHT22;57517;43.562;19.540;2023-02-28T10:36:32;205.50;2124.80
70151;DHT22;57517;43.562;19.540;2023-02-28T10:38:57;205.60;1996.80
70151;DHT22;57517;43.562;19.540;2023-02-28T10:41:29;230.40;2252.80
70151;DHT22;57517;43.562;19.540;2023-02-28T10:44:14;230.50;2252.80
70151;DHT22;57517;43.562;19.540;2023-02-28T10:46:41;230.70;2176.00
70151;DHT22;57517;43.562;19.540;2023-02-28T10:49:23;230.50;2124.80
70151;DHT22;57517;43.562;19.540;2023-02-28T10:51:54;230.70;2252.80
70151;DHT22;57517;43.562;19.540;2023-02-28T10:54:32;230.50;1920.00
70151;DHT22;57517;43.562;19.540;2023-02-28T10:57:22;230.40;1996.80
70151;DHT22;57517;43.562;19.540;2023-02-28T11:00:05;230.40;1996.80
70151;DHT22;57517;43.562;19.540;2023-02-28T11:02:34;230.40;1945.60
70151;DHT22;57517;43.562;19.540;2023-02-28T11:05:00;230.40;1971.20
70151;DHT22;57517;43.562;19.540;2023-02-28T11:07:26;230.40;1945.60
70151;DHT22;57517;43.562;19.540;2023-02-28T11:09:55;205.70;1971.20
70151;DHT22;57517;43.562;19.540;2023-02-28T11:12:37;205.60;2073.60
70151;DHT22;57517;43.562;19.540;2023-02-28T11:17:44;205.30;2073.60
70151;DHT22;57517;43.562;19.540;2023-02-28T11:20:22;205.00;2150.40
70151;DHT22;57517;43.562;19.540;2023-02-28T11:22:50;180.10;2227.20
70151;DHT22;57517;43.562;19.540;2023-02-28T11:25:26;204.80;2201.60
70151;DHT22;57517;43.562;19.540;2023-02-28T11:27:54;204.80;2227.20
70151;DHT22;57517;43.562;19.540;2023-02-28T11:30:29;204.90;2227.20
70151;DHT22;57517;43.562;19.540;2023-02-28T11:32:55;205.00;2201.60
70151;DHT22;57517;43.562;19.540;2023-02-28T11:35:31;205.10;2150.40
70151;DHT22;57517;43.562;19.540;2023-02-28T11:37:58;205.10;2201.60
70151;DHT22;57517;43.562;19.540;2023-02-28T11:51:18;205.10;2201.60
70151;DHT22;57517;43.562;19.540;2023-02-28T11:57:03;205.40;2073.60
70151;DHT22;57517;43.562;19.540;2023-02-28T12:02:23;205.50;2150.40
70151;DHT22;57517;43.562;19.540;2023-02-28T12:07:47;205.30;2176.00
70151;DHT22;57517;43.562;19.540;2023-02-28T12:10:28;205.40;2201.60
70151;DHT22;57517;43.562;19.540;2023-02-28T12:13:16;205.20;2176.00
70151;DHT22;57517;43.562;19.540;2023-02-28T12:19:29;205.00;2252.80
70151;DHT22;57517;43.562;19.540;2023-02-28T12:22:29;204.90;2252.80
70151;DHT22;57517;43.562;19.540;2023-02-28T12:27:43;205.00;2252.80
70151;DHT22;57517;43.562;19.540;2023-02-28T12:30:30;205.10;2252.80
70151;DHT22;57517;43.562;19.540;2023-02-28T12:33:17;205.20;2252.80
70151;DHT22;57517;43.562;19.540;2023-02-28T12:35:52;205.10;2252.80
70151;DHT22;57517;43.562;19.540;2023-02-28T12:38:45;205.00;2252.80
70151;DHT22;57517;43.562;19.540;2023-02-28T12:44:02;180.00;2252.80
70151;DHT22;57517;43.562;19.540;2023-02-28T12:46:30;180.00;2252.80
70151;DHT22;57517;43.562;19.540;2023-02-28T12:49:00;179.90;2252.80
70151;DHT22;57517;43.562;19.540;2023-02-28T12:51:28;179.60;2252.80
70151;DHT22;57517;43.562;19.540;2023-02-28T12:54:15;179.70;2252.80
70151;DHT22;57517;43.562;19.540;2023-02-28T12:56:58;180.00;2252.80
70151;DHT22;57517;43.562;19.540;2023-02-28T13:00:08;179.90;2252.80
70151;DHT22;57517;43.562;19.540;2023-02-28T13:03:03;180.00;2252.80
70151;DHT22;57517;43.562;19.540;2023-02-28T13:05:56;204.80;2252.80
70151;DHT22;57517;43.562;19.540;2023-02-28T13:08:37;204.80;2252.80
70151;DHT22;57517;43.562;19.540;2023-02-28T13:11:07;204.90;2252.80
70151;DHT22;57517;43.562;19.540;2023-02-28T13:13:48;204.80;2252.80
70151;DHT22;57517;43.562;19.540;2023-02-28T13:16:22;204.80;2252.80
70151;DHT22;57517;43.562;19.540;2023-02-28T13:18:48;204.80;2252.80
70151;DHT22;57517;43.562;19.540;2023-02-28T13:21:28;204.80;2252.80
70151;DHT22;57517;43.562;19.540;2023-02-28T13:24:03;204.80;2252.80
70151;DHT22;57517;43.562;19.540;2023-02-28T13:29:21;180.10;2252.80
70151;DHT22;57517;43.562;19.540;2023-02-28T13:34:39;179.90;2252.80
70151;DHT22;57517;43.562;19.540;2023-02-28T13:39:59;179.80;2252.80
70151;DHT22;57517;43.562;19.540;2023-02-28T13:47:43;179.40;2252.80
70151;DHT22;57517;43.562;19.540;2023-02-28T13:55:49;179.70;2252.80
70151;DHT22;57517;43.562;19.540;2023-02-28T13:58:27;179.70;2252.80
70151;DHT22;57517;43.562;19.540;2023-02-28T14:03:49;179.80;2252.80
70151;DHT22;57517;43.562;19.540;2023-02-28T14:06:33;179.50;2252.80
70151;DHT22;57517;43.562;19.540;2023-02-28T14:11:43;179.20;2252.80
70151;DHT22;57517;43.562;19.540;2023-02-28T14:17:12;179.30;2252.80
70151;DHT22;57517;43.562;19.540;2023-02-28T14:19:39;179.20;2252.80
70151;DHT22;57517;43.562;19.540;2023-02-28T14:25:18;154.50;2252.80
70151;DHT22;57517;43.562;19.540;2023-02-28T14:27:54;154.30;2252.80
70151;DHT22;57517;43.562;19.540;2023-02-28T14:30:52;154.40;2252.80
70151;DHT22;57517;43.562;19.540;2023-02-28T14:36:32;154.20;2252.80
70151;DHT22;57517;43.562;19.540;2023-02-28T14:39:04;154.10;2252.80
70151;DHT22;57517;43.562;19.540;2023-02-28T14:41:37;154.00;2252.80
70151;DHT22;57517;43.562;19.540;2023-02-28T14:44:15;153.90;2252.80
70151;DHT22;57517;43.562;19.540;2023-02-28T14:46:43;154.00;2252.80
70151;DHT22;57517;43.562;19.540;2023-02-28T14:49:30;154.20;2252.80
70151;DHT22;57517;43.562;19.540;2023-02-28T14:54:28;154.20;2252.80
70151;DHT22;57517;43.562;19.540;2023-02-28T14:56:54;154.40;2252.80
70151;DHT22;57517;43.562;19.540;2023-02-28T14:59:29;154.30;2252.80
70151;DHT22;57517;43.562;19.540;2023-02-28T15:02:15;154.30;2252.80
70151;DHT22;57517;43.562;19.540;2023-02-28T15:04:41;154.50;2252.80
70151;DHT22;57517;43.562;19.540;2023-02-28T15:07:14;179.20;2252.80
70151;DHT22;57517;43.562;19.540;2023-02-28T15:09:40;179.40;2252.80
70151;DHT22;57517;43.562;19.540;2023-02-28T15:12:06;179.40;2252.80
70151;DHT22;57517;43.562;19.540;2023-02-28T15:14:42;179.20;2252.80
70151;DHT22;57517;43.562;19.540;2023-02-28T15:17:11;179.20;2252.80
70151;DHT22;57517;43.562;19.540;2023-02-28T15:19:41;154.40;2252.80
70151;DHT22;57517;43.562;19.540;2023-02-28T15:22:14;154.20;2252.80
70151;DHT22;57517;43.562;19.540;2023-02-28T15:24:52;154.20;2252.80
70151;DHT22;57517;43.562;19.540;2023-02-28T15:27:30;154.00;2252.80
70151;DHT22;57517;43.562;19.540;2023-02-28T15:29:59;153.90;2252.80
70151;DHT22;57517;43.562;19.540;2023-02-28T15:32:35;153.90;2252.80
70151;DHT22;57517;43.562;19.540;2023-02-28T15:37:53;153.70;2252.80
70151;DHT22;57517;43.562;19.540;2023-02-28T15:40:26;153.80;2252.80
70151;DHT22;57517;43.562;19.540;2023-02-28T15:43:14;153.80;2252.80
70151;DHT22;57517;43.562;19.540;2023-02-28T15:46:12;153.80;2252.80
70151;DHT22;57517;43.562;19.540;2023-02-28T15:48:52;153.70;2252.80
70151;DHT22;57517;43.562;19.540;2023-02-28T15:51:21;153.70;2252.80
70151;DHT22;57517;43.562;19.540;2023-02-28T15:53:51;153.70;2252.80
70151;DHT22;57517;43.562;19.540;2023-02-28T15:56:31;153.70;2252.80
70151;DHT22;57517;43.562;19.540;2023-02-28T15:59:06;153.60;2252.80
70151;DHT22;57517;43.562;19.540;2023-02-28T16:01:37;153.60;2252.80
70151;DHT22;57517;43.562;19.540;2023-02-28T16:04:05;128.90;2252.80
70151;DHT22;57517;43.562;19.540;2023-02-28T16:09:04;153.60;2252.80
70151;DHT22;57517;43.562;19.540;2023-02-28T16:11:43;153.60;2252.80
70151;DHT22;57517;43.562;19.540;2023-02-28T16:14:16;128.90;2252.80
70151;DHT22;57517;43.562;19.540;2023-02-28T16:16:45;128.80;2252.80
70151;DHT22;57517;43.562;19.540;2023-02-28T16:19:11;128.80;2252.80
70151;DHT22;57517;43.562;19.540;2023-02-28T16:21:36;128.80;2252.80
70151;DHT22;57517;43.562;19.540;2023-02-28T16:24:02;128.80;2252.80
70151;DHT22;57517;43.562;19.540;2023-02-28T16:26:28;128.80;2252.80
70151;DHT22;57517;43.562;19.540;2023-02-28T16:28:54;128.70;2252.80
70151;DHT22;57517;43.562;19.540;2023-02-28T16:31:20;128.70;2252.80
70151;DHT22;57517;43.562;19.540;2023-02-28T16:33:46;128.90;2252.80
70151;DHT22;57517;43.562;19.540;2023-02-28T16:36:21;128.80;2252.80
70151;DHT22;57517;43.562;19.540;2023-02-28T16:38:50;128.70;2252.80
70151;DHT22;57517;43.562;19.540;2023-02-28T16:41:29;128.70;2252.80
70151;DHT22;57517;43.562;19.540;2023-02-28T16:43:56;128.70;2252.80
70151;DHT22;57517;43.562;19.540;2023-02-28T16:46:31;128.70;2252.80
70151;DHT22;57517;43.562;19.540;2023-02-28T16:48:58;128.80;2252.80
70151;DHT22;57517;43.562;19.540;2023-02-28T16:51:24;153.60;2252.80
70151;DHT22;57517;43.562;19.540;2023-02-28T16:53:49;153.60;2252.80
70151;DHT22;57517;43.562;19.540;2023-02-28T16:56:18;128.90;2252.80
70151;DHT22;57517;43.562;19.540;2023-02-28T16:58:44;153.60;2252.80